Time;durP1;ratioP1;P1;durP2;ratioP2;P2;SDS_P1;SDS_P2;PMS_P1;PMS_P2;Temp;Humidity;BMP_temperature;BMP_pressure;BME280_temperature;BME280_humidity;BME280_pressure;Samples;Min_cycle;Max_cycle;Signal;HPM_P1;HPM_P2
2021/10/11 00:02:44;;;;;;;;;;;;;;;5.78;69.23;101909.28;15618313;28;20131;-60
2021/10/11 00:10:19;;;;;;;1999.90;999.90;;;;;;;5.58;70.18;101896.19;15611584;28;19932;-59
2021/10/11 00:17:52;;;;;;;1999.90;999.90;;;;;;;5.65;69.07;101901.50;15579872;28;20048;-60
2021/10/11 00:25:26;;;;;;;1999.90;999.90;;;;;;;5.69;69.53;101897.06;15598614;28;20783;-60
2021/10/11 00:32:58;;;;;;;1999.90;999.90;;;;;;;5.40;70.46;101900.25;15604040;28;20057;-59
2021/10/11 00:40:32;;;;;;;1999.90;999.90;;;;;;;5.41;69.64;101885.31;15590024;28;20049;-61
2021/10/11 00:48:05;;;;;;;1999.90;999.90;;;;;;;5.32;69.79;101881.41;15591443;28;20128;-58
2021/10/11 00:55:39;;;;;;;1999.90;999.90;;;;;;;5.49;69.64;101870.94;15596864;28;20414;-60
2021/10/11 01:03:11;;;;;;;;;;;;;;;5.46;68.62;101857.66;15631663;28;20112;-59
2021/10/11 01:10:47;;;;;;;1999.90;999.90;;;;;;;5.21;70.33;101847.31;15607465;28;19948;-59
2021/10/11 01:18:19;;;;;;;1999.90;999.90;;;;;;;5.34;69.87;101831.31;15599958;28;20429;-60
2021/10/11 01:25:54;;;;;;;1999.90;999.90;;;;;;;5.29;69.73;101823.81;15616935;28;20512;-60
2021/10/11 01:33:26;;;;;;;1999.90;999.90;;;;;;;5.18;70.95;101808.28;15635524;28;20399;-59
2021/10/11 01:41:00;;;;;;;1999.90;999.90;;;;;;;5.63;70.45;101792.94;15606815;28;20046;-60
2021/10/11 01:48:32;;;;;;;1999.90;999.90;;;;;;;5.70;71.06;101787.94;15603547;22;20044;-57
2021/10/11 01:56:06;;;;;;;1999.90;999.90;;;;;;;5.87;69.91;101782.97;15712302;28;20044;-57
2021/10/11 02:03:39;;;;;;;1999.90;999.90;;;;;;;5.52;70.70;101769.91;15689971;28;20046;-58
2021/10/11 02:11:13;;;;;;;1999.90;999.90;;;;;;;5.48;70.72;101743.88;15639262;28;20482;-56
2021/10/11 02:18:45;;;;;;;;;;;;;;;5.59;71.58;101720.63;15680389;28;20159;-55
2021/10/11 02:26:20;;;;;;;1999.90;999.90;;;;;;;5.96;69.40;101738.97;15679598;28;20560;-55
2021/10/11 02:33:52;;;;;;;1999.90;999.90;;;;;;;5.90;70.36;101726.19;15660039;28;20814;-58
2021/10/11 02:41:26;;;;;;;1999.90;999.90;;;;;;;6.03;69.18;101728.44;15678632;28;20152;-55
2021/10/11 02:48:59;;;;;;;1999.90;999.90;;;;;;;5.90;69.82;101728.97;15660526;28;20045;-57
2021/10/11 02:56:32;;;;;;;1999.90;999.90;;;;;;;5.93;70.51;101729.25;15676746;28;20045;-56
2021/10/11 03:04:06;;;;;;;1999.90;999.90;;;;;;;5.93;70.02;101723.72;15677587;28;20076;-56
2021/10/11 03:11:40;;;;;;;1999.90;999.90;;;;;;;5.97;70.42;101712.94;15674969;28;20462;-57
2021/10/11 03:19:12;;;;;;;;;;;;;;;6.21;69.42;101699.31;15661614;28;20629;-56
2021/10/11 03:26:46;;;;;;;1999.90;999.90;;;;;;;6.11;69.68;101699.34;15654167;28;19920;-57
2021/10/11 03:34:19;;;;;;;;;;;;;;;6.33;69.20;101674.88;15676325;28;20067;-56
2021/10/11 03:41:53;;;;;;;1999.90;999.90;;;;;;;6.20;70.60;101686.56;15656730;28;19959;-56
2021/10/11 03:49:26;;;;;;;1999.90;999.90;;;;;;;6.31;69.61;101682.66;15674358;28;20037;-54
2021/10/11 03:56:59;;;;;;;1999.90;999.90;;;;;;;6.53;69.49;101683.16;15655941;28;20099;-57
2021/10/11 04:04:33;;;;;;;1999.90;999.90;;;;;;;6.55;68.92;101688.41;15675385;28;20041;-57
2021/10/11 04:12:10;;;;;;;1999.90;999.90;;;;;;;6.71;68.56;101680.88;15677090;28;20063;-57
2021/10/11 04:19:42;;;;;;;1999.90;999.90;;;;;;;6.83;69.43;101681.38;15655803;28;20067;-56
2021/10/11 04:27:16;;;;;;;1999.90;999.90;;;;;;;6.83;69.77;101675.81;15667523;28;20047;-55
2021/10/11 04:34:48;;;;;;;1999.90;999.90;;;;;;;6.86;69.38;101678.84;15653418;28;20033;-55
2021/10/11 04:42:23;;;;;;;1999.90;999.90;;;;;;;6.89;69.66;101675.53;15658587;28;20426;-57
2021/10/11 04:49:55;;;;;;;;;;;;;;;7.00;69.06;101669.91;15652257;28;20430;-57
2021/10/11 04:57:29;;;;;;;1999.90;999.90;;;;;;;6.58;68.60;101668.44;15668094;28;19964;-56
2021/10/11 05:05:01;;;;;;;1999.90;999.90;;;;;;;6.63;69.62;101665.63;15666485;28;20049;-56
2021/10/11 05:12:35;;;;;;;1999.90;999.90;;;;;;;6.65;69.42;101672.56;15653805;28;20069;-55
2021/10/11 05:20:09;;;;;;;1999.90;999.90;;;;;;;6.69;70.39;101666.47;15653459;28;20533;-56
2021/10/11 05:27:43;;;;;;;1999.90;999.90;;;;;;;6.69;69.92;101664.53;15648490;28;20046;-52
2021/10/11 05:35:16;;;;;;;1999.90;999.90;;;;;;;6.80;71.67;101662.53;15669886;28;20081;-56
2021/10/11 05:42:50;;;;;;;1999.90;999.90;;;;;;;7.05;69.29;101661.53;15652177;28;20437;-52
2021/10/11 05:50:22;;;;;;;;;;;;;;;7.14;69.28;101662.59;15680948;28;20116;-52
2021/10/11 05:57:56;;;;;;;1999.90;999.90;;;;;;;7.08;69.57;101660.97;15664093;28;19920;-54
2021/10/11 06:05:28;;;;;;;1999.90;999.90;;;;;;;7.14;69.53;101657.06;15681538;28;20450;-56
2021/10/11 06:13:02;;;;;;;1999.90;999.90;;;;;;;7.29;69.39;101661.66;15641497;28;20073;-56
2021/10/11 06:20:35;;;;;;;1999.90;999.90;;;;;;;7.36;69.72;101660.22;15665985;28;20041;-55
2021/10/11 06:28:08;;;;;;;1999.90;999.90;;;;;;;7.63;69.39;101668.09;15657785;28;20038;-54
2021/10/11 06:35:41;;;;;;;1999.90;999.90;;;;;;;7.49;70.05;101669.84;15618317;28;20126;-59
2021/10/11 12:56:50;;;;;;;1999.90;999.90;;;;;;;23.74;42.96;101647.78;15607329;28;20496;-58
2021/10/11 13:04:24;;;;;;;1999.90;999.90;;;;;;;24.02;41.86;101644.22;15614137;28;20049;-61
2021/10/11 13:11:57;;;;;;;1999.90;999.90;;;;;;;18.93;52.35;101627.66;15614875;28;20456;-61
2021/10/11 13:19:30;;;;;;;1999.90;999.90;;;;;;;17.54;55.59;101625.94;15615153;28;20057;-62
2021/10/11 13:27:24;;;;;;;1999.90;999.90;;;;;;;17.91;55.23;101617.31;15615332;28;20045;-61
2021/10/11 14:30:07;;;;;;;1999.90;999.90;;;;;;;17.15;60.50;101580.47;15742989;28;20055;-53
2021/10/11 16:04:13;;;;;;;1999.90;999.90;;;;;;;15.52;63.15;101544.81;15707139;28;20098;-57
2021/10/11 16:11:46;;;;;;;1999.90;999.90;;;;;;;15.27;63.36;101541.91;15719151;28;20152;-55
2021/10/11 16:19:20;;;;;;;1999.90;999.90;;;;;;;15.06;64.12;101540.28;15736245;28;20079;-57
2021/10/11 16:26:52;;;;;;;1999.90;999.90;;;;;;;14.77;65.39;101544.81;15718021;28;20032;-58
2021/10/11 16:34:26;;;;;;;1999.90;999.90;;;;;;;14.82;65.20;101539.00;15734616;28;20142;-57
2021/10/11 16:42:00;;;;;;;1999.90;999.90;;;;;;;14.90;65.68;101526.88;15701077;28;20040;-57
2021/10/11 16:49:34;;;;;;;1999.90;999.90;;;;;;;14.86;65.19;101525.88;15734552;28;20040;-57
2021/10/11 16:57:07;;;;;;;1999.90;999.90;;;;;;;14.67;65.07;101528.34;15716845;28;20098;-56
2021/10/11 17:04:41;;;;;;;1999.90;999.90;;;;;;;14.63;65.46;101516.97;15716645;28;20421;-58
2021/10/11 17:12:13;;;;;;;1999.90;999.90;;;;;;;14.62;66.15;101522.94;15735670;28;20718;-58
2021/10/11 17:19:47;;;;;;;1999.90;999.90;;;;;;;14.20;66.37;101534.06;15700156;28;20053;-57
2021/10/11 17:27:20;;;;;;;1999.90;999.90;;;;;;;14.08;66.67;101533.97;15735509;28;20040;-59
2021/10/11 17:34:54;;;;;;;1999.90;999.90;;;;;;;14.10;67.18;101531.63;15716449;28;20083;-54
2021/10/11 17:42:26;;;;;;;1999.90;999.90;;;;;;;14.19;67.03;101521.19;15738359;28;20040;-58
2021/10/11 17:50:00;;;;;;;1999.90;999.90;;;;;;;14.12;67.14;101526.50;15744713;28;20072;-57
2021/10/11 17:57:32;;;;;;;1999.90;999.90;;;;;;;13.90;68.55;101529.56;15744393;28;20399;-56
2021/10/11 18:05:07;;;;;;;1999.90;999.90;;;;;;;13.89;68.81;101511.91;15708773;28;20044;-57
2021/10/11 18:12:40;;;;;;;1999.90;999.90;;;;;;;13.76;68.90;101508.19;15725705;28;20036;-57
2021/10/11 18:20:13;;;;;;;1999.90;999.90;;;;;;;13.63;68.76;101509.19;15743271;28;20098;-54
2021/10/11 18:27:46;;;;;;;1999.90;999.90;;;;;;;13.10;70.13;101504.00;15742856;28;20052;-56
2021/10/11 18:35:20;;;;;;;1999.90;999.90;;;;;;;13.09;70.36;101508.78;15708939;28;20051;-56
2021/10/11 18:42:52;;;;;;;1999.90;999.90;;;;;;;13.05;69.88;101504.19;15709107;28;20735;-53
2021/10/11 18:50:26;;;;;;;1999.90;999.90;;;;;;;13.00;70.33;101502.34;15708489;28;20063;-57
2021/10/11 18:57:59;;;;;;;1999.90;999.90;;;;;;;12.87;70.36;101508.94;15722651;28;20072;-58
2021/10/11 19:05:32;;;;;;;1999.90;999.90;;;;;;;12.80;71.10;101506.63;15741552;28;20048;-58
2021/10/11 19:13:10;;;;;;;1999.90;999.90;;;;;;;12.75;72.01;101512.41;15740831;28;20049;-57
2021/10/11 19:20:46;;;;;;;1999.90;999.90;;;;;;;12.77;72.46;101504.50;15721708;28;20044;-57
2021/10/11 19:28:19;;;;;;;1999.90;999.90;;;;;;;12.41;73.76;101504.81;15739285;28;20469;-57
2021/10/11 19:35:52;;;;;;;1999.90;999.90;;;;;;;12.57;73.80;101503.16;15738598;28;20146;-56
2021/10/11 19:43:25;;;;;;;1999.90;999.90;;;;;;;12.53;73.45;101501.34;15738845;28;20110;-58
2021/10/11 19:50:59;;;;;;;1999.90;999.90;;;;;;;12.36;74.54;101502.13;15683796;22;20144;-60
2021/10/11 19:58:31;;;;;;;1999.90;999.90;;;;;;;12.56;74.32;101493.13;15614501;28;20111;-59
2021/10/11 20:06:05;;;;;;;1999.90;999.90;;;;;;;12.76;73.52;101494.44;15643173;28;20057;-60
2021/10/11 20:13:39;;;;;;;1999.90;999.90;;;;;;;12.75;73.75;101491.97;15609484;28;20132;-61
2021/10/11 20:21:13;;;;;;;;;;;;;;;12.83;73.72;101493.97;15613336;28;20045;-63
2021/10/11 20:28:45;;;;;;;;;;;;;;;12.81;74.11;101490.66;15610747;28;19920;-61
2021/10/11 20:36:22;;;;;;;1999.90;999.90;;;;;;;12.80;74.06;101491.81;15594454;28;19927;-62
2021/10/11 20:43:55;;;;;;;1999.90;999.90;;;;;;;12.75;73.92;101494.78;15610830;28;20457;-63
2021/10/11 20:51:28;;;;;;;1999.90;999.90;;;;;;;12.46;75.11;101482.22;15611938;28;20041;-63
2021/10/11 20:59:02;;;;;;;1999.90;999.90;;;;;;;12.67;74.57;101482.41;15608359;28;20073;-62
2021/10/11 21:06:36;;;;;;;1999.90;999.90;;;;;;;12.61;74.51;101481.78;15614133;28;20038;-62
2021/10/11 21:14:09;;;;;;;1999.90;999.90;;;;;;;12.51;74.95;101482.09;15608427;28;20046;-60
2021/10/11 21:21:43;;;;;;;1999.90;999.90;;;;;;;12.65;74.35;101477.16;15622031;28;20210;-61
2021/10/11 21:29:18;;;;;;;1999.90;999.90;;;;;;;12.23;75.31;101486.31;15621160;28;20068;-62
2021/10/11 21:36:53;;;;;;;1999.90;999.90;;;;;;;12.26;74.74;101486.47;15619908;28;20534;-62
2021/10/11 21:44:29;;;;;;;1999.90;999.90;;;;;;;12.14;74.87;101484.31;15621638;28;20045;-61
2021/10/11 21:52:04;;;;;;;1999.90;999.90;;;;;;;11.92;75.71;101472.41;15621042;28;20030;-62
2021/10/11 21:59:37;;;;;;;1999.90;999.90;;;;;;;12.05;74.93;101463.88;15619447;28;20064;-62
2021/10/11 22:07:10;;;;;;;1999.90;999.90;;;;;;;11.74;75.36;101468.69;15588564;28;20472;-62
2021/10/11 22:14:43;;;;;;;1999.90;999.90;;;;;;;11.73;75.10;101467.84;15619483;28;20548;-61
2021/10/11 22:22:17;;;;;;;1999.90;999.90;;;;;;;11.75;75.18;101461.94;15619604;28;20045;-62
2021/10/11 22:29:50;;;;;;;1999.90;999.90;;;;;;;11.47;76.15;101450.97;15616111;28;20486;-61
2021/10/11 22:37:24;;;;;;;1999.90;999.90;;;;;;;11.57;76.16;101445.09;15617121;28;20048;-61
2021/10/11 22:44:56;;;;;;;1999.90;999.90;;;;;;;11.65;76.25;101448.25;15615877;28;20041;-60
2021/10/11 22:52:39;;;;;;;1999.90;999.90;;;;;;;11.52;76.25;101455.59;15617097;28;20140;-60
2021/10/11 23:00:13;;;;;;;1999.90;999.90;;;;;;;11.42;76.59;101456.69;15617123;28;20499;-59
2021/10/11 23:07:48;;;;;;;1999.90;999.90;;;;;;;11.36;77.56;101435.63;15615297;28;20052;-61
2021/10/11 23:15:20;;;;;;;1999.90;999.90;;;;;;;11.34;76.88;101431.50;15614621;28;20083;-60
2021/10/11 23:22:54;;;;;;;1999.90;999.90;;;;;;;11.27;77.50;101424.41;15615347;28;20105;-61
2021/10/11 23:30:27;;;;;;;1999.90;999.90;;;;;;;11.30;77.10;101422.94;15615213;28;20110;-61
2021/10/11 23:38:00;;;;;;;1999.90;999.90;;;;;;;11.27;77.23;101423.59;15612951;28;20056;-61
2021/10/11 23:45:33;;;;;;;1999.90;999.90;;;;;;;11.23;76.53;101423.38;15637557;28;20481;-60
2021/10/11 23:53:08;;;;;;;1999.90;999.90;;;;;;;10.91;77.93;101418.91;15641651;28;20051;-60
